sensor_id;sensor_type;location;lat;lon;timestamp;P1;durP1;ratioP1;P2;durP2;ratioP2
34234;SDS011;20500;49.856;20.290;2022-10-16T00:01:08;27.40;;;17.70;;
34234;SDS011;20500;49.856;20.290;2022-10-16T00:04:16;21.70;;;16.00;;
34234;SDS011;20500;49.856;20.290;2022-10-16T00:10:27;28.30;;;16.70;;
34234;SDS011;20500;49.856;20.290;2022-10-16T00:16:39;27.80;;;16.40;;
34234;SDS011;20500;49.856;20.290;2022-10-16T00:19:45;20.90;;;15.00;;
34234;SDS011;20500;49.856;20.290;2022-10-16T00:22:52;23.40;;;16.70;;
34234;SDS011;20500;49.856;20.290;2022-10-16T00:29:03;26.00;;;16.30;;
34234;SDS011;20500;49.856;20.290;2022-10-16T00:32:11;23.50;;;16.90;;
34234;SDS011;20500;49.856;20.290;2022-10-16T00:35:17;25.00;;;17.20;;
34234;SDS011;20500;49.856;20.290;2022-10-16T00:38:23;23.30;;;16.40;;
34234;SDS011;20500;49.856;20.290;2022-10-16T00:44:48;22.70;;;15.30;;
34234;SDS011;20500;49.856;20.290;2022-10-16T00:47:56;24.90;;;17.50;;
34234;SDS011;20500;49.856;20.290;2022-10-16T00:51:03;25.40;;;18.50;;
34234;SDS011;20500;49.856;20.290;2022-10-16T00:54:12;24.50;;;15.60;;
34234;SDS011;20500;49.856;20.290;2022-10-16T00:57:20;23.20;;;16.40;;
34234;SDS011;20500;49.856;20.290;2022-10-16T01:00:27;23.60;;;15.80;;
34234;SDS011;20500;49.856;20.290;2022-10-16T01:06:39;24.40;;;15.90;;
34234;SDS011;20500;49.856;20.290;2022-10-16T01:09:57;23.20;;;16.10;;
34234;SDS011;20500;49.856;20.290;2022-10-16T01:13:12;22.40;;;15.20;;
34234;SDS011;20500;49.856;20.290;2022-10-16T01:16:27;22.20;;;15.70;;
34234;SDS011;20500;49.856;20.290;2022-10-16T01:19:44;22.40;;;15.80;;
34234;SDS011;20500;49.856;20.290;2022-10-16T01:23:20;23.20;;;15.30;;
34234;SDS011;20500;49.856;20.290;2022-10-16T01:26:35;21.10;;;14.80;;
34234;SDS011;20500;49.856;20.290;2022-10-16T01:29:51;22.20;;;14.60;;
34234;SDS011;20500;49.856;20.290;2022-10-16T01:33:01;20.50;;;14.60;;
34234;SDS011;20500;49.856;20.290;2022-10-16T01:36:13;21.30;;;14.40;;
34234;SDS011;20500;49.856;20.290;2022-10-16T01:39:24;22.90;;;15.00;;
34234;SDS011;20500;49.856;20.290;2022-10-16T01:42:36;22.60;;;15.00;;
34234;SDS011;20500;49.856;20.290;2022-10-16T01:45:46;24.30;;;16.90;;
34234;SDS011;20500;49.856;20.290;2022-10-16T01:48:52;24.80;;;15.50;;
34234;SDS011;20500;49.856;20.290;2022-10-16T01:51:59;25.80;;;16.00;;
34234;SDS011;20500;49.856;20.290;2022-10-16T01:55:10;21.10;;;15.20;;
34234;SDS011;20500;49.856;20.290;2022-10-16T01:58:20;21.50;;;14.60;;
34234;SDS011;20500;49.856;20.290;2022-10-16T02:01:28;22.10;;;14.60;;
34234;SDS011;20500;49.856;20.290;2022-10-16T02:04:40;22.80;;;14.60;;
34234;SDS011;20500;49.856;20.290;2022-10-16T02:07:49;23.20;;;15.10;;
34234;SDS011;20500;49.856;20.290;2022-10-16T02:10:56;21.00;;;13.50;;
34234;SDS011;20500;49.856;20.290;2022-10-16T02:14:05;20.30;;;14.20;;
34234;SDS011;20500;49.856;20.290;2022-10-16T02:17:12;20.80;;;13.70;;
34234;SDS011;20500;49.856;20.290;2022-10-16T02:20:20;19.70;;;13.70;;
34234;SDS011;20500;49.856;20.290;2022-10-16T02:23:32;20.20;;;13.50;;
34234;SDS011;20500;49.856;20.290;2022-10-16T02:26:48;20.40;;;13.90;;
34234;SDS011;20500;49.856;20.290;2022-10-16T02:29:57;22.90;;;14.50;;
34234;SDS011;20500;49.856;20.290;2022-10-16T02:33:11;23.30;;;15.70;;
34234;SDS011;20500;49.856;20.290;2022-10-16T02:36:19;24.00;;;17.70;;
34234;SDS011;20500;49.856;20.290;2022-10-16T02:39:26;24.60;;;17.00;;
34234;SDS011;20500;49.856;20.290;2022-10-16T02:42:34;24.70;;;16.90;;
34234;SDS011;20500;49.856;20.290;2022-10-16T02:45:43;20.60;;;15.00;;
34234;SDS011;20500;49.856;20.290;2022-10-16T02:48:49;21.70;;;15.50;;
34234;SDS011;20500;49.856;20.290;2022-10-16T02:51:55;21.30;;;14.60;;
34234;SDS011;20500;49.856;20.290;2022-10-16T02:55:01;20.60;;;14.50;;
34234;SDS011;20500;49.856;20.290;2022-10-16T02:58:09;20.70;;;14.50;;
34234;SDS011;20500;49.856;20.290;2022-10-16T03:01:15;21.50;;;14.40;;
34234;SDS011;20500;49.856;20.290;2022-10-16T03:04:21;21.50;;;14.20;;
34234;SDS011;20500;49.856;20.290;2022-10-16T03:10:32;20.90;;;13.30;;
34234;SDS011;20500;49.856;20.290;2022-10-16T03:13:38;20.90;;;13.20;;
34234;SDS011;20500;49.856;20.290;2022-10-16T03:19:49;19.60;;;13.30;;
34234;SDS011;20500;49.856;20.290;2022-10-16T03:22:55;20.90;;;13.20;;
34234;SDS011;20500;49.856;20.290;2022-10-16T03:29:06;19.00;;;12.70;;
34234;SDS011;20500;49.856;20.290;2022-10-16T03:32:12;19.10;;;12.90;;
34234;SDS011;20500;49.856;20.290;2022-10-16T03:38:23;19.30;;;13.70;;
34234;SDS011;20500;49.856;20.290;2022-10-16T03:41:29;21.30;;;12.70;;
34234;SDS011;20500;49.856;20.290;2022-10-16T03:47:40;19.30;;;12.30;;
34234;SDS011;20500;49.856;20.290;2022-10-16T03:50:46;19.10;;;12.10;;
34234;SDS011;20500;49.856;20.290;2022-10-16T03:53:54;18.20;;;12.20;;
34234;SDS011;20500;49.856;20.290;2022-10-16T04:00:06;18.20;;;10.60;;
34234;SDS011;20500;49.856;20.290;2022-10-16T04:03:13;17.30;;;11.00;;
34234;SDS011;20500;49.856;20.290;2022-10-16T04:06:20;19.20;;;11.30;;
34234;SDS011;20500;49.856;20.290;2022-10-16T04:12:31;16.00;;;9.20;;
34234;SDS011;20500;49.856;20.290;2022-10-16T04:18:41;15.10;;;9.00;;
34234;SDS011;20500;49.856;20.290;2022-10-16T04:24:52;15.80;;;9.50;;
34234;SDS011;20500;49.856;20.290;2022-10-16T04:31:04;13.90;;;8.50;;
34234;SDS011;20500;49.856;20.290;2022-10-16T04:34:11;14.70;;;8.50;;
34234;SDS011;20500;49.856;20.290;2022-10-16T04:37:17;16.70;;;9.50;;
34234;SDS011;20500;49.856;20.290;2022-10-16T04:40:23;17.90;;;8.40;;
34234;SDS011;20500;49.856;20.290;2022-10-16T04:46:34;14.30;;;8.60;;
34234;SDS011;20500;49.856;20.290;2022-10-16T04:49:40;14.40;;;8.30;;
34234;SDS011;20500;49.856;20.290;2022-10-16T04:52:46;14.70;;;8.70;;
34234;SDS011;20500;49.856;20.290;2022-10-16T04:58:57;13.00;;;7.50;;
34234;SDS011;20500;49.856;20.290;2022-10-16T05:05:08;15.30;;;8.80;;
34234;SDS011;20500;49.856;20.290;2022-10-16T05:08:14;15.00;;;8.30;;
34234;SDS011;20500;49.856;20.290;2022-10-16T05:11:21;14.80;;;8.10;;
34234;SDS011;20500;49.856;20.290;2022-10-16T05:17:31;14.20;;;8.80;;
34234;SDS011;20500;49.856;20.290;2022-10-16T05:20:42;18.00;;;9.40;;
34234;SDS011;20500;49.856;20.290;2022-10-16T05:23:48;17.30;;;8.50;;
34234;SDS011;20500;49.856;20.290;2022-10-16T05:29:58;14.00;;;8.50;;
34234;SDS011;20500;49.856;20.290;2022-10-16T05:36:09;13.80;;;8.30;;
34234;SDS011;20500;49.856;20.290;2022-10-16T05:39:16;12.70;;;7.90;;
34234;SDS011;20500;49.856;20.290;2022-10-16T05:42:22;16.70;;;9.00;;
34234;SDS011;20500;49.856;20.290;2022-10-16T05:48:33;17.40;;;8.90;;
34234;SDS011;20500;49.856;20.290;2022-10-16T05:51:39;15.80;;;9.40;;
34234;SDS011;20500;49.856;20.290;2022-10-16T05:54:45;15.50;;;8.70;;
34234;SDS011;20500;49.856;20.290;2022-10-16T06:00:58;15.20;;;8.50;;
34234;SDS011;20500;49.856;20.290;2022-10-16T06:04:06;15.10;;;8.00;;
34234;SDS011;20500;49.856;20.290;2022-10-16T06:07:18;17.10;;;9.20;;
34234;SDS011;20500;49.856;20.290;2022-10-16T06:10:24;16.20;;;8.60;;
34234;SDS011;20500;49.856;20.290;2022-10-16T06:13:31;13.60;;;7.90;;
34234;SDS011;20500;49.856;20.290;2022-10-16T06:19:42;15.40;;;8.60;;
34234;SDS011;20500;49.856;20.290;2022-10-16T06:25:53;15.40;;;7.70;;
34234;SDS011;20500;49.856;20.290;2022-10-16T06:29:07;14.10;;;8.70;;
34234;SDS011;20500;49.856;20.290;2022-10-16T06:32:14;14.90;;;7.90;;
34234;SDS011;20500;49.856;20.290;2022-10-16T06:38:24;13.60;;;7.70;;
34234;SDS011;20500;49.856;20.290;2022-10-16T06:44:35;14.60;;;8.00;;
34234;SDS011;20500;49.856;20.290;2022-10-16T06:50:46;14.10;;;8.40;;
34234;SDS011;20500;49.856;20.290;2022-10-16T06:54:01;14.90;;;8.00;;
34234;SDS011;20500;49.856;20.290;2022-10-16T06:57:07;14.60;;;8.00;;
34234;SDS011;20500;49.856;20.290;2022-10-16T07:00:14;13.60;;;8.20;;
34234;SDS011;20500;49.856;20.290;2022-10-16T07:03:20;13.20;;;8.00;;
34234;SDS011;20500;49.856;20.290;2022-10-16T07:09:31;14.30;;;8.60;;
34234;SDS011;20500;49.856;20.290;2022-10-16T07:15:41;14.30;;;7.20;;
34234;SDS011;20500;49.856;20.290;2022-10-16T07:21:57;15.30;;;8.30;;
34234;SDS011;20500;49.856;20.290;2022-10-16T07:28:08;16.80;;;7.70;;
34234;SDS011;20500;49.856;20.290;2022-10-16T07:34:20;16.10;;;8.70;;
34234;SDS011;20500;49.856;20.290;2022-10-16T07:37:26;14.80;;;8.40;;
34234;SDS011;20500;49.856;20.290;2022-10-16T07:43:37;14.50;;;7.90;;
34234;SDS011;20500;49.856;20.290;2022-10-16T07:46:44;13.80;;;8.70;;
34234;SDS011;20500;49.856;20.290;2022-10-16T07:52:54;15.70;;;8.00;;
34234;SDS011;20500;49.856;20.290;2022-10-16T07:56:01;14.50;;;8.30;;
34234;SDS011;20500;49.856;20.290;2022-10-16T07:59:08;14.50;;;8.10;;
34234;SDS011;20500;49.856;20.290;2022-10-16T08:02:14;14.00;;;7.80;;
34234;SDS011;20500;49.856;20.290;2022-10-16T08:08:25;13.70;;;7.80;;
34234;SDS011;20500;49.856;20.290;2022-10-16T08:11:32;15.50;;;8.70;;
34234;SDS011;20500;49.856;20.290;2022-10-16T08:14:38;15.00;;;7.80;;
34234;SDS011;20500;49.856;20.290;2022-10-16T08:17:55;15.50;;;8.50;;
34234;SDS011;20500;49.856;20.290;2022-10-16T08:21:03;21.60;;;15.50;;
34234;SDS011;20500;49.856;20.290;2022-10-16T08:24:10;13.40;;;8.60;;
34234;SDS011;20500;49.856;20.290;2022-10-16T08:27:16;14.00;;;7.30;;
34234;SDS011;20500;49.856;20.290;2022-10-16T08:30:23;18.40;;;7.90;;
34234;SDS011;20500;49.856;20.290;2022-10-16T08:33:29;13.40;;;7.40;;
34234;SDS011;20500;49.856;20.290;2022-10-16T08:36:37;12.40;;;6.80;;
34234;SDS011;20500;49.856;20.290;2022-10-16T08:39:44;12.70;;;7.10;;
34234;SDS011;20500;49.856;20.290;2022-10-16T08:42:56;13.00;;;6.90;;
34234;SDS011;20500;49.856;20.290;2022-10-16T08:46:31;12.90;;;7.40;;
34234;SDS011;20500;49.856;20.290;2022-10-16T08:49:55;15.20;;;8.50;;
34234;SDS011;20500;49.856;20.290;2022-10-16T08:53:05;12.30;;;6.60;;
34234;SDS011;20500;49.856;20.290;2022-10-16T08:56:18;13.80;;;7.00;;
34234;SDS011;20500;49.856;20.290;2022-10-16T08:59:25;13.30;;;7.90;;
34234;SDS011;20500;49.856;20.290;2022-10-16T09:02:33;13.50;;;6.60;;
34234;SDS011;20500;49.856;20.290;2022-10-16T09:05:46;12.90;;;6.90;;
34234;SDS011;20500;49.856;20.290;2022-10-16T09:09:06;12.80;;;6.60;;
34234;SDS011;20500;49.856;20.290;2022-10-16T09:12:24;12.60;;;6.60;;
34234;SDS011;20500;49.856;20.290;2022-10-16T09:15:37;12.40;;;6.90;;
34234;SDS011;20500;49.856;20.290;2022-10-16T09:18:51;12.40;;;6.30;;
34234;SDS011;20500;49.856;20.290;2022-10-16T09:22:04;13.30;;;6.30;;
34234;SDS011;20500;49.856;20.290;2022-10-16T09:25:20;13.20;;;6.60;;
34234;SDS011;20500;49.856;20.290;2022-10-16T09:28:27;13.80;;;7.00;;
34234;SDS011;20500;49.856;20.290;2022-10-16T09:31:33;11.60;;;6.80;;
34234;SDS011;20500;49.856;20.290;2022-10-16T09:34:43;12.30;;;6.70;;
34234;SDS011;20500;49.856;20.290;2022-10-16T09:37:51;13.10;;;6.80;;
34234;SDS011;20500;49.856;20.290;2022-10-16T09:41:00;11.90;;;6.20;;
34234;SDS011;20500;49.856;20.290;2022-10-16T09:44:19;13.00;;;6.20;;
34234;SDS011;20500;49.856;20.290;2022-10-16T09:47:29;11.30;;;6.00;;
34234;SDS011;20500;49.856;20.290;2022-10-16T09:50:41;12.00;;;5.60;;
34234;SDS011;20500;49.856;20.290;2022-10-16T09:53:48;14.20;;;6.00;;
34234;SDS011;20500;49.856;20.290;2022-10-16T09:57:05;11.60;;;6.50;;
34234;SDS011;20500;49.856;20.290;2022-10-16T10:00:17;11.80;;;6.10;;
34234;SDS011;20500;49.856;20.290;2022-10-16T10:06:50;11.60;;;5.90;;
34234;SDS011;20500;49.856;20.290;2022-10-16T10:09:59;11.40;;;6.30;;
34234;SDS011;20500;49.856;20.290;2022-10-16T10:13:16;12.10;;;6.20;;
34234;SDS011;20500;49.856;20.290;2022-10-16T10:16:25;11.90;;;6.10;;
34234;SDS011;20500;49.856;20.290;2022-10-16T10:19:37;12.80;;;6.60;;
34234;SDS011;20500;49.856;20.290;2022-10-16T10:22:45;11.80;;;6.10;;
34234;SDS011;20500;49.856;20.290;2022-10-16T10:25:52;12.10;;;7.00;;
34234;SDS011;20500;49.856;20.290;2022-10-16T10:29:02;13.60;;;6.70;;
34234;SDS011;20500;49.856;20.290;2022-10-16T10:32:20;14.00;;;6.70;;
34234;SDS011;20500;49.856;20.290;2022-10-16T10:35:39;11.70;;;6.50;;
34234;SDS011;20500;49.856;20.290;2022-10-16T10:38:50;13.40;;;7.00;;
34234;SDS011;20500;49.856;20.290;2022-10-16T10:42:02;13.90;;;7.10;;
34234;SDS011;20500;49.856;20.290;2022-10-16T10:45:24;13.90;;;6.80;;
34234;SDS011;20500;49.856;20.290;2022-10-16T10:48:54;13.90;;;6.50;;
34234;SDS011;20500;49.856;20.290;2022-10-16T10:52:13;12.50;;;6.70;;
34234;SDS011;20500;49.856;20.290;2022-10-16T10:55:39;12.00;;;7.20;;
34234;SDS011;20500;49.856;20.290;2022-10-16T10:58:57;12.10;;;6.70;;
34234;SDS011;20500;49.856;20.290;2022-10-16T11:02:13;12.50;;;6.20;;
34234;SDS011;20500;49.856;20.290;2022-10-16T11:05:36;11.20;;;6.60;;
34234;SDS011;20500;49.856;20.290;2022-10-16T11:08:47;11.70;;;6.00;;
34234;SDS011;20500;49.856;20.290;2022-10-16T11:12:05;13.30;;;6.50;;
34234;SDS011;20500;49.856;20.290;2022-10-16T11:15:17;11.30;;;5.90;;
34234;SDS011;20500;49.856;20.290;2022-10-16T11:18:27;12.40;;;6.10;;
34234;SDS011;20500;49.856;20.290;2022-10-16T11:21:46;11.40;;;6.70;;
34234;SDS011;20500;49.856;20.290;2022-10-16T11:28:07;13.10;;;6.30;;
34234;SDS011;20500;49.856;20.290;2022-10-16T11:31:19;11.90;;;6.70;;
34234;SDS011;20500;49.856;20.290;2022-10-16T11:34:35;14.60;;;6.50;;
34234;SDS011;20500;49.856;20.290;2022-10-16T11:37:48;11.80;;;6.80;;
34234;SDS011;20500;49.856;20.290;2022-10-16T11:40:58;11.90;;;6.10;;
34234;SDS011;20500;49.856;20.290;2022-10-16T11:47:39;12.10;;;6.40;;
34234;SDS011;20500;49.856;20.290;2022-10-16T11:51:02;12.30;;;6.60;;
34234;SDS011;20500;49.856;20.290;2022-10-16T11:54:16;12.10;;;6.30;;
34234;SDS011;20500;49.856;20.290;2022-10-16T11:57:28;12.00;;;6.50;;
34234;SDS011;20500;49.856;20.290;2022-10-16T12:00:37;13.20;;;6.50;;
34234;SDS011;20500;49.856;20.290;2022-10-16T12:03:52;12.10;;;6.50;;
34234;SDS011;20500;49.856;20.290;2022-10-16T12:07:08;12.50;;;6.30;;
34234;SDS011;20500;49.856;20.290;2022-10-16T12:10:20;12.50;;;6.40;;
34234;SDS011;20500;49.856;20.290;2022-10-16T12:13:30;11.40;;;5.80;;
34234;SDS011;20500;49.856;20.290;2022-10-16T12:16:38;15.30;;;6.90;;
34234;SDS011;20500;49.856;20.290;2022-10-16T12:20:12;13.50;;;5.90;;
34234;SDS011;20500;49.856;20.290;2022-10-16T12:23:27;10.70;;;5.50;;
34234;SDS011;20500;49.856;20.290;2022-10-16T12:26:33;10.90;;;6.10;;
34234;SDS011;20500;49.856;20.290;2022-10-16T12:29:42;10.70;;;5.90;;
34234;SDS011;20500;49.856;20.290;2022-10-16T12:32:54;11.90;;;6.00;;
34234;SDS011;20500;49.856;20.290;2022-10-16T12:36:03;11.10;;;5.80;;
34234;SDS011;20500;49.856;20.290;2022-10-16T12:39:19;13.70;;;6.50;;
34234;SDS011;20500;49.856;20.290;2022-10-16T12:42:34;11.00;;;5.70;;
34234;SDS011;20500;49.856;20.290;2022-10-16T12:45:40;11.10;;;5.90;;
34234;SDS011;20500;49.856;20.290;2022-10-16T12:48:47;13.40;;;7.90;;
34234;SDS011;20500;49.856;20.290;2022-10-16T12:55:34;13.30;;;6.50;;
34234;SDS011;20500;49.856;20.290;2022-10-16T12:58:55;12.30;;;6.20;;
34234;SDS011;20500;49.856;20.290;2022-10-16T13:05:57;13.70;;;6.20;;
34234;SDS011;20500;49.856;20.290;2022-10-16T13:09:24;11.60;;;6.00;;
34234;SDS011;20500;49.856;20.290;2022-10-16T13:12:49;13.10;;;5.60;;
34234;SDS011;20500;49.856;20.290;2022-10-16T13:16:12;12.80;;;5.30;;
34234;SDS011;20500;49.856;20.290;2022-10-16T13:19:27;12.60;;;5.90;;
34234;SDS011;20500;49.856;20.290;2022-10-16T13:22:40;10.60;;;5.30;;
34234;SDS011;20500;49.856;20.290;2022-10-16T13:26:03;11.10;;;5.70;;
34234;SDS011;20500;49.856;20.290;2022-10-16T13:29:21;11.80;;;6.20;;
34234;SDS011;20500;49.856;20.290;2022-10-16T13:32:33;12.90;;;5.80;;
34234;SDS011;20500;49.856;20.290;2022-10-16T13:35:46;11.50;;;5.50;;
34234;SDS011;20500;49.856;20.290;2022-10-16T13:39:06;12.70;;;5.50;;
34234;SDS011;20500;49.856;20.290;2022-10-16T13:42:21;11.50;;;5.60;;
34234;SDS011;20500;49.856;20.290;2022-10-16T13:45:30;11.90;;;5.60;;
34234;SDS011;20500;49.856;20.290;2022-10-16T13:48:36;13.60;;;5.70;;
34234;SDS011;20500;49.856;20.290;2022-10-16T13:51:53;11.10;;;5.50;;
34234;SDS011;20500;49.856;20.290;2022-10-16T13:55:00;11.50;;;5.60;;
34234;SDS011;20500;49.856;20.290;2022-10-16T13:58:08;13.50;;;5.20;;
34234;SDS011;20500;49.856;20.290;2022-10-16T14:01:18;11.40;;;5.30;;
34234;SDS011;20500;49.856;20.290;2022-10-16T14:04:34;12.70;;;5.50;;
34234;SDS011;20500;49.856;20.290;2022-10-16T14:07:47;12.90;;;5.90;;
34234;SDS011;20500;49.856;20.290;2022-10-16T14:10:56;13.10;;;6.00;;
34234;SDS011;20500;49.856;20.290;2022-10-16T14:14:04;11.70;;;5.80;;
34234;SDS011;20500;49.856;20.290;2022-10-16T14:17:15;12.60;;;5.70;;
34234;SDS011;20500;49.856;20.290;2022-10-16T14:20:24;14.00;;;5.90;;
34234;SDS011;20500;49.856;20.290;2022-10-16T14:23:35;14.00;;;5.90;;
34234;SDS011;20500;49.856;20.290;2022-10-16T14:26:42;12.90;;;6.10;;
34234;SDS011;20500;49.856;20.290;2022-10-16T14:30:03;11.00;;;5.40;;
34234;SDS011;20500;49.856;20.290;2022-10-16T14:33:21;14.10;;;5.60;;
34234;SDS011;20500;49.856;20.290;2022-10-16T14:36:36;12.30;;;6.30;;
34234;SDS011;20500;49.856;20.290;2022-10-16T14:39:48;16.30;;;6.70;;
34234;SDS011;20500;49.856;20.290;2022-10-16T14:42:55;12.80;;;6.50;;
34234;SDS011;20500;49.856;20.290;2022-10-16T14:46:02;15.50;;;6.40;;
34234;SDS011;20500;49.856;20.290;2022-10-16T14:49:17;13.70;;;6.80;;
34234;SDS011;20500;49.856;20.290;2022-10-16T14:52:24;13.80;;;6.50;;
34234;SDS011;20500;49.856;20.290;2022-10-16T14:55:31;12.70;;;6.40;;
34234;SDS011;20500;49.856;20.290;2022-10-16T14:58:37;14.20;;;6.30;;
34234;SDS011;20500;49.856;20.290;2022-10-16T15:01:43;13.50;;;5.90;;
34234;SDS011;20500;49.856;20.290;2022-10-16T15:04:50;16.20;;;7.60;;
34234;SDS011;20500;49.856;20.290;2022-10-16T15:07:56;16.10;;;7.60;;
34234;SDS011;20500;49.856;20.290;2022-10-16T15:11:03;13.80;;;6.90;;
34234;SDS011;20500;49.856;20.290;2022-10-16T15:14:12;14.10;;;6.20;;
34234;SDS011;20500;49.856;20.290;2022-10-16T15:17:18;15.60;;;7.20;;
34234;SDS011;20500;49.856;20.290;2022-10-16T15:20:25;14.00;;;6.90;;
34234;SDS011;20500;49.856;20.290;2022-10-16T15:23:33;17.20;;;7.10;;
34234;SDS011;20500;49.856;20.290;2022-10-16T15:26:39;16.50;;;7.10;;
34234;SDS011;20500;49.856;20.290;2022-10-16T15:29:45;15.70;;;9.70;;
34234;SDS011;20500;49.856;20.290;2022-10-16T15:32:52;21.60;;;11.60;;
34234;SDS011;20500;49.856;20.290;2022-10-16T15:35:58;18.30;;;8.20;;
34234;SDS011;20500;49.856;20.290;2022-10-16T15:39:04;15.20;;;7.60;;
34234;SDS011;20500;49.856;20.290;2022-10-16T15:42:16;18.60;;;11.00;;
34234;SDS011;20500;49.856;20.290;2022-10-16T15:45:22;17.90;;;10.00;;
34234;SDS011;20500;49.856;20.290;2022-10-16T15:48:29;17.10;;;8.20;;
34234;SDS011;20500;49.856;20.290;2022-10-16T15:51:36;13.30;;;7.10;;
34234;SDS011;20500;49.856;20.290;2022-10-16T15:54:44;15.20;;;8.40;;
34234;SDS011;20500;49.856;20.290;2022-10-16T15:57:56;14.00;;;7.60;;
34234;SDS011;20500;49.856;20.290;2022-10-16T16:01:02;15.90;;;7.90;;
34234;SDS011;20500;49.856;20.290;2022-10-16T16:04:09;21.10;;;7.80;;
34234;SDS011;20500;49.856;20.290;2022-10-16T16:07:35;13.80;;;7.30;;
34234;SDS011;20500;49.856;20.290;2022-10-16T16:10:42;15.60;;;8.00;;
34234;SDS011;20500;49.856;20.290;2022-10-16T16:13:49;22.50;;;8.60;;
34234;SDS011;20500;49.856;20.290;2022-10-16T16:19:59;18.70;;;7.90;;
34234;SDS011;20500;49.856;20.290;2022-10-16T16:23:07;19.30;;;7.80;;
34234;SDS011;20500;49.856;20.290;2022-10-16T16:26:13;15.00;;;7.50;;
34234;SDS011;20500;49.856;20.290;2022-10-16T16:29:27;14.20;;;7.50;;
34234;SDS011;20500;49.856;20.290;2022-10-16T16:35:37;18.40;;;8.30;;
34234;SDS011;20500;49.856;20.290;2022-10-16T16:38:43;14.90;;;7.50;;
34234;SDS011;20500;49.856;20.290;2022-10-16T16:41:50;14.60;;;8.00;;
34234;SDS011;20500;49.856;20.290;2022-10-16T16:44:56;15.90;;;8.50;;
34234;SDS011;20500;49.856;20.290;2022-10-16T16:48:03;16.30;;;9.30;;
34234;SDS011;20500;49.856;20.290;2022-10-16T16:51:11;17.80;;;8.00;;
34234;SDS011;20500;49.856;20.290;2022-10-16T16:54:19;14.90;;;8.10;;
34234;SDS011;20500;49.856;20.290;2022-10-16T16:57:25;15.30;;;8.80;;
34234;SDS011;20500;49.856;20.290;2022-10-16T17:00:32;17.30;;;8.00;;
34234;SDS011;20500;49.856;20.290;2022-10-16T17:03:41;17.40;;;9.40;;
34234;SDS011;20500;49.856;20.290;2022-10-16T17:06:48;17.90;;;8.50;;
34234;SDS011;20500;49.856;20.290;2022-10-16T17:09:56;13.90;;;8.20;;
34234;SDS011;20500;49.856;20.290;2022-10-16T17:13:02;15.20;;;8.70;;
34234;SDS011;20500;49.856;20.290;2022-10-16T17:19:14;15.70;;;9.50;;
34234;SDS011;20500;49.856;20.290;2022-10-16T17:22:21;16.30;;;8.90;;
34234;SDS011;20500;49.856;20.290;2022-10-16T17:25:27;16.00;;;8.90;;
34234;SDS011;20500;49.856;20.290;2022-10-16T17:28:36;17.80;;;9.40;;
34234;SDS011;20500;49.856;20.290;2022-10-16T17:31:42;21.20;;;12.90;;
34234;SDS011;20500;49.856;20.290;2022-10-16T17:34:51;16.80;;;9.60;;
34234;SDS011;20500;49.856;20.290;2022-10-16T17:37:57;17.40;;;9.10;;
34234;SDS011;20500;49.856;20.290;2022-10-16T17:44:18;15.10;;;8.00;;
34234;SDS011;20500;49.856;20.290;2022-10-16T17:47:24;17.80;;;10.70;;
34234;SDS011;20500;49.856;20.290;2022-10-16T17:50:30;21.50;;;14.60;;
34234;SDS011;20500;49.856;20.290;2022-10-16T17:53:37;20.10;;;13.10;;
34234;SDS011;20500;49.856;20.290;2022-10-16T17:56:44;19.40;;;10.40;;
34234;SDS011;20500;49.856;20.290;2022-10-16T17:59:52;17.70;;;10.40;;
34234;SDS011;20500;49.856;20.290;2022-10-16T18:02:59;18.40;;;10.00;;
34234;SDS011;20500;49.856;20.290;2022-10-16T18:06:05;17.70;;;10.30;;
34234;SDS011;20500;49.856;20.290;2022-10-16T18:09:12;16.40;;;9.60;;
34234;SDS011;20500;49.856;20.290;2022-10-16T18:12:20;16.60;;;9.30;;
34234;SDS011;20500;49.856;20.290;2022-10-16T18:15:27;14.30;;;9.10;;
34234;SDS011;20500;49.856;20.290;2022-10-16T18:18:33;16.10;;;9.20;;
34234;SDS011;20500;49.856;20.290;2022-10-16T18:21:39;15.90;;;8.30;;
34234;SDS011;20500;49.856;20.290;2022-10-16T18:24:45;15.80;;;8.40;;
34234;SDS011;20500;49.856;20.290;2022-10-16T18:27:51;13.20;;;8.00;;
34234;SDS011;20500;49.856;20.290;2022-10-16T18:37:08;18.40;;;8.20;;
34234;SDS011;20500;49.856;20.290;2022-10-16T18:40:16;15.00;;;7.30;;
34234;SDS011;20500;49.856;20.290;2022-10-16T18:43:22;15.20;;;8.40;;
34234;SDS011;20500;49.856;20.290;2022-10-16T18:46:29;15.40;;;8.00;;
34234;SDS011;20500;49.856;20.290;2022-10-16T18:49:36;13.70;;;7.70;;
34234;SDS011;20500;49.856;20.290;2022-10-16T18:52:47;14.30;;;8.40;;
34234;SDS011;20500;49.856;20.290;2022-10-16T18:55:53;15.60;;;9.40;;
34234;SDS011;20500;49.856;20.290;2022-10-16T19:02:06;13.90;;;7.90;;
34234;SDS011;20500;49.856;20.290;2022-10-16T19:05:12;15.70;;;8.30;;
34234;SDS011;20500;49.856;20.290;2022-10-16T19:08:18;16.80;;;8.60;;
34234;SDS011;20500;49.856;20.290;2022-10-16T19:11:24;16.10;;;9.20;;
34234;SDS011;20500;49.856;20.290;2022-10-16T19:14:31;14.80;;;8.00;;
34234;SDS011;20500;49.856;20.290;2022-10-16T19:17:38;14.00;;;7.70;;
34234;SDS011;20500;49.856;20.290;2022-10-16T19:23:51;14.10;;;8.30;;
34234;SDS011;20500;49.856;20.290;2022-10-16T19:26:58;15.20;;;8.90;;
34234;SDS011;20500;49.856;20.290;2022-10-16T19:36:15;14.40;;;8.20;;
34234;SDS011;20500;49.856;20.290;2022-10-16T19:39:25;13.90;;;8.30;;
34234;SDS011;20500;49.856;20.290;2022-10-16T19:42:31;13.20;;;8.20;;
34234;SDS011;20500;49.856;20.290;2022-10-16T19:45:38;15.30;;;8.10;;
34234;SDS011;20500;49.856;20.290;2022-10-16T19:51:50;14.50;;;8.00;;
34234;SDS011;20500;49.856;20.290;2022-10-16T19:54:56;16.90;;;8.70;;
34234;SDS011;20500;49.856;20.290;2022-10-16T19:58:02;13.70;;;8.00;;
34234;SDS011;20500;49.856;20.290;2022-10-16T20:01:09;13.60;;;8.00;;
34234;SDS011;20500;49.856;20.290;2022-10-16T20:04:16;15.50;;;8.40;;
34234;SDS011;20500;49.856;20.290;2022-10-16T20:10:27;15.50;;;8.40;;
34234;SDS011;20500;49.856;20.290;2022-10-16T20:16:44;16.70;;;9.10;;
34234;SDS011;20500;49.856;20.290;2022-10-16T20:22:54;19.60;;;9.90;;
34234;SDS011;20500;49.856;20.290;2022-10-16T20:29:06;18.80;;;10.20;;
34234;SDS011;20500;49.856;20.290;2022-10-16T20:32:12;20.70;;;11.00;;
34234;SDS011;20500;49.856;20.290;2022-10-16T20:35:18;19.70;;;11.80;;
34234;SDS011;20500;49.856;20.290;2022-10-16T20:38:24;22.20;;;11.90;;
34234;SDS011;20500;49.856;20.290;2022-10-16T20:44:35;22.90;;;13.60;;
34234;SDS011;20500;49.856;20.290;2022-10-16T20:47:41;19.50;;;13.00;;
34234;SDS011;20500;49.856;20.290;2022-10-16T20:50:48;19.50;;;13.20;;
34234;SDS011;20500;49.856;20.290;2022-10-16T20:56:59;22.10;;;14.50;;
34234;SDS011;20500;49.856;20.290;2022-10-16T21:03:11;20.70;;;13.80;;
34234;SDS011;20500;49.856;20.290;2022-10-16T21:09:22;20.40;;;13.30;;
34234;SDS011;20500;49.856;20.290;2022-10-16T21:15:33;23.00;;;14.60;;
34234;SDS011;20500;49.856;20.290;2022-10-16T21:18:39;21.10;;;14.20;;
34234;SDS011;20500;49.856;20.290;2022-10-16T21:21:46;25.90;;;15.50;;
34234;SDS011;20500;49.856;20.290;2022-10-16T21:24:54;22.80;;;15.50;;
34234;SDS011;20500;49.856;20.290;2022-10-16T21:28:01;26.80;;;15.40;;
34234;SDS011;20500;49.856;20.290;2022-10-16T21:31:13;25.90;;;15.70;;
34234;SDS011;20500;49.856;20.290;2022-10-16T21:34:21;25.50;;;16.50;;